Time;durP1;ratioP1;P1;durP2;ratioP2;P2;SDS_P1;SDS_P2;PMS_P1;PMS_P2;Temp;Humidity;BMP_temperature;BMP_pressure;BME280_temperature;BME280_humidity;BME280_pressure;Samples;Min_cycle;Max_cycle;Signal;HPM_P1;HPM_P2
2022/07/25 00:02:20;;;;;;;8.60;5.22;;;;;;;19.33;62.78;100799.50;5073319;28;20032;-60
2022/07/25 00:04:46;;;;;;;6.90;4.78;;;;;;;19.36;62.55;100793.16;5057054;28;20395;-60
2022/07/25 00:07:11;;;;;;;6.55;4.88;;;;;;;19.35;62.67;100789.63;5074858;28;20037;-59
2022/07/25 00:09:37;;;;;;;6.32;4.55;;;;;;;19.37;62.55;100787.72;5074632;28;20086;-59
2022/07/25 00:12:02;;;;;;;6.15;4.85;;;;;;;19.33;62.75;100794.16;5074469;28;20157;-60
2022/07/25 00:14:28;;;;;;;6.20;4.80;;;;;;;19.23;63.14;100789.38;5074901;28;20361;-62
2022/07/25 00:16:53;;;;;;;6.85;4.45;;;;;;;19.15;63.10;100779.09;5072934;28;20123;-60
2022/07/25 00:19:18;;;;;;;6.00;4.20;;;;;;;19.25;63.11;100785.69;5074153;28;20029;-60
2022/07/25 00:21:44;;;;;;;5.70;4.88;;;;;;;19.24;62.88;100784.00;5074348;28;20056;-59
2022/07/25 00:24:10;;;;;;;7.00;5.03;;;;;;;19.19;63.45;100775.38;5074376;28;20043;-60
2022/07/25 00:26:35;;;;;;;6.57;5.22;;;;;;;19.14;63.49;100780.06;5072905;28;20028;-59
2022/07/25 00:29:00;;;;;;;5.75;4.72;;;;;;;19.06;63.66;100780.44;5056665;28;20037;-58
2022/07/25 00:31:26;;;;;;;9.18;4.45;;;;;;;18.99;64.05;100783.50;5054195;28;20060;-60
2022/07/25 00:33:52;;;;;;;8.98;4.55;;;;;;;19.01;63.86;100782.47;5052228;28;20044;-60
2022/07/25 00:36:17;;;;;;;4.68;4.18;;;;;;;19.11;63.40;100777.53;5054357;28;20062;-59
2022/07/25 00:38:43;;;;;;;5.13;3.92;;;;;;;19.17;63.24;100775.44;5054089;28;20469;-60
2022/07/25 00:41:08;;;;;;;6.43;4.35;;;;;;;19.22;63.09;100777.00;5052925;28;20029;-59
2022/07/25 00:43:34;;;;;;;6.93;5.10;;;;;;;19.18;63.23;100774.50;5053974;28;20507;-60
2022/07/25 00:45:59;;;;;;;6.45;5.03;;;;;;;19.14;63.28;100774.72;5053810;28;20040;-60
2022/07/25 00:48:27;;;;;;;7.88;5.40;;;;;;;19.10;63.23;100776.69;5052841;28;20495;-59
2022/07/25 00:50:53;;;;;;;5.25;4.53;;;;;;;19.01;63.64;100777.16;5052444;28;20546;-60
2022/07/25 00:53:18;;;;;;;6.20;4.60;;;;;;;18.95;63.68;100778.34;5053807;28;20041;-59
2022/07/25 00:55:46;;;;;;;6.68;4.93;;;;;;;18.90;63.76;100780.34;5053986;28;20111;-59
2022/07/25 00:58:11;;;;;;;6.78;5.25;;;;;;;18.92;63.95;100780.28;5052649;28;20032;-59
2022/07/25 01:00:37;;;;;;;5.90;4.75;;;;;;;18.95;63.70;100778.34;5052819;28;20037;-60
2022/07/25 01:03:03;;;;;;;6.13;4.82;;;;;;;18.98;63.37;100776.44;5053563;28;20043;-57
2022/07/25 01:05:28;;;;;;;5.10;4.38;;;;;;;19.00;63.31;100774.59;5052345;28;20400;-60
2022/07/25 01:07:54;;;;;;;6.00;4.68;;;;;;;19.03;62.97;100779.72;5035778;28;20365;-59
2022/07/25 01:10:19;;;;;;;6.18;4.95;;;;;;;18.92;63.28;100772.31;5053564;28;20487;-59
2022/07/25 01:12:51;;;;;;;5.40;4.38;;;;;;;18.87;63.38;100775.19;5053492;28;20437;-60
2022/07/25 01:15:23;;;;;;;8.77;5.47;;;;;;;18.78;63.61;100772.13;5052347;28;20025;-60
2022/07/25 01:17:49;;;;;;;;;;;;;;;18.67;64.26;100768.16;5052746;28;20054;-60
2022/07/25 01:20:23;;;;;;;6.43;3.83;;;;;;;18.62;64.19;100766.66;5052140;28;20039;-60
2022/07/25 01:22:50;;;;;;;5.63;4.70;;;;;;;18.60;63.94;100765.88;5035569;28;20056;-60
2022/07/25 01:25:15;;;;;;;5.80;4.60;;;;;;;18.60;64.10;100765.88;5053460;28;20040;-59
2022/07/25 01:27:42;;;;;;;5.72;4.60;;;;;;;18.63;63.94;100763.94;5053116;28;20033;-60
2022/07/25 01:30:10;;;;;;;6.53;4.78;;;;;;;18.64;63.87;100759.47;5052554;28;20039;-60
2022/07/25 01:32:36;;;;;;;6.55;4.43;;;;;;;18.71;63.72;100755.56;5053156;28;20037;-60
2022/07/25 01:35:04;;;;;;;7.03;5.00;;;;;;;18.77;63.43;100755.28;5051833;28;20045;-60
2022/07/25 01:37:29;;;;;;;6.75;5.20;;;;;;;18.76;63.63;100756.22;5052261;28;20082;-59
2022/07/25 01:39:55;;;;;;;7.95;5.00;;;;;;;18.76;63.46;100753.56;5053038;28;20435;-60
2022/07/25 01:42:21;;;;;;;5.88;4.80;;;;;;;18.75;63.58;100756.28;5053065;28;20063;-59
2022/07/25 01:44:46;;;;;;;5.95;4.68;;;;;;;18.80;63.34;100760.47;5053266;28;20033;-60
2022/07/25 01:47:11;;;;;;;6.82;4.80;;;;;;;18.83;63.33;100757.66;5055817;28;20033;-59
2022/07/25 01:49:37;;;;;;;7.10;4.60;;;;;;;18.84;63.09;100759.38;5057388;28;20033;-59
2022/07/25 01:52:02;;;;;;;7.65;4.93;;;;;;;18.84;62.89;100751.38;5056077;28;20225;-59
2022/07/25 01:54:28;;;;;;;6.43;4.63;;;;;;;18.81;63.10;100753.34;5056337;28;20082;-60
2022/07/25 01:56:54;;;;;;;6.13;4.32;;;;;;;18.74;63.08;100752.78;5057026;28;20056;-59
2022/07/25 01:59:19;;;;;;;6.13;4.63;;;;;;;18.69;63.13;100760.09;5056847;28;20037;-59
2022/07/25 02:01:44;;;;;;;7.50;4.75;;;;;;;18.57;63.68;100758.03;5056024;28;20033;-59
2022/07/25 02:04:10;;;;;;;7.13;4.50;;;;;;;18.57;63.68;100761.56;5055864;28;20048;-59
2022/07/25 02:06:35;;;;;;;6.43;4.57;;;;;;;18.55;63.60;100760.78;5055804;28;20037;-59
2022/07/25 02:09:02;;;;;;;5.32;4.30;;;;;;;18.53;63.49;100753.81;5056770;28;20503;-59
2022/07/25 02:11:28;;;;;;;8.65;4.70;;;;;;;18.58;63.45;100759.75;5039237;28;20489;-59
2022/07/25 02:13:53;;;;;;;5.00;4.18;;;;;;;18.57;63.43;100750.06;5056976;28;20139;-60
2022/07/25 02:16:19;;;;;;;6.18;4.22;;;;;;;18.53;63.27;100751.16;5055457;28;20107;-60
2022/07/25 02:18:44;;;;;;;6.72;4.53;;;;;;;18.59;63.08;100754.38;5056644;28;20037;-60
2022/07/25 02:21:10;;;;;;;5.22;4.28;;;;;;;18.63;63.01;100744.41;5055363;28;20035;-59
2022/07/25 02:23:36;;;;;;;4.97;4.22;;;;;;;18.64;62.74;100749.69;5056502;28;20036;-59
2022/07/25 02:26:02;;;;;;;4.35;3.95;;;;;;;18.62;62.99;100748.03;5055103;28;20094;-59
2022/07/25 02:28:27;;;;;;;6.47;3.90;;;;;;;18.70;62.68;100746.72;5055714;28;20079;-59
2022/07/25 02:30:53;;;;;;;4.93;4.07;;;;;;;18.74;62.59;100743.94;5056717;28;20041;-59
2022/07/25 02:33:18;;;;;;;5.03;4.22;;;;;;;18.72;62.55;100743.16;5055536;28;20103;-59
2022/07/25 02:35:44;;;;;;;9.05;4.90;;;;;;;18.64;62.44;100747.03;5056367;28;20045;-59
2022/07/25 02:38:10;;;;;;;7.00;4.80;;;;;;;18.61;62.71;100751.63;5054865;28;20028;-59
2022/07/25 02:40:35;;;;;;;7.28;5.15;;;;;;;18.53;62.88;100751.16;5056036;28;20039;-59
2022/07/25 02:43:01;;;;;;;5.88;4.28;;;;;;;18.45;63.04;100760.34;5056414;28;20033;-59
2022/07/25 02:45:26;;;;;;;7.63;4.50;;;;;;;18.36;63.29;100760.81;5055344;28;20033;-59
2022/07/25 02:47:52;;;;;;;6.70;5.00;;;;;;;18.26;63.78;100762.16;5054929;28;20025;-59
2022/07/25 02:50:17;;;;;;;7.18;5.00;;;;;;;18.30;63.70;100760.22;5056055;28;20087;-59
2022/07/25 02:52:43;;;;;;;6.10;4.68;;;;;;;18.38;63.48;100758.91;5056156;28;20468;-59
2022/07/25 02:55:09;;;;;;;5.72;4.53;;;;;;;18.46;63.28;100759.41;5054947;28;20033;-59
2022/07/25 02:57:35;;;;;;;5.50;4.93;;;;;;;18.54;63.14;100755.53;5055806;28;20083;-59
2022/07/25 03:00:00;;;;;;;5.40;4.53;;;;;;;18.64;62.83;100757.66;5056007;28;20024;-60
2022/07/25 03:02:26;;;;;;;6.25;4.38;;;;;;;18.73;62.47;100755.53;5055955;28;20380;-59
2022/07/25 03:04:51;;;;;;;6.32;5.18;;;;;;;18.77;62.43;100752.63;5054700;28;20357;-59
2022/07/25 03:07:16;;;;;;;5.55;4.82;;;;;;;18.79;62.28;100752.53;5055930;28;20032;-59
2022/07/25 03:09:42;;;;;;;4.80;4.32;;;;;;;18.87;62.08;100748.56;5054610;28;20111;-59
2022/07/25 03:12:07;;;;;;;6.00;4.60;;;;;;;18.95;61.51;100746.38;5054939;28;20131;-60
2022/07/25 03:14:33;;;;;;;6.30;4.93;;;;;;;19.03;61.61;100751.31;5054952;28;20415;-59
2022/07/25 03:16:58;;;;;;;6.22;4.57;;;;;;;19.05;61.50;100749.44;5055807;28;20119;-59
2022/07/25 03:19:24;;;;;;;7.45;5.40;;;;;;;19.11;61.44;100753.56;5054391;28;20037;-60
2022/07/25 03:21:49;;;;;;;7.45;5.60;;;;;;;19.17;60.93;100761.25;5055532;28;20069;-59
2022/07/25 03:24:17;;;;;;;5.95;4.70;;;;;;;19.20;60.89;100750.47;5055383;28;20112;-59
2022/07/25 03:26:44;;;;;;;9.32;5.13;;;;;;;19.22;60.95;100743.22;5038075;28;20033;-59
2022/07/25 03:29:10;;;;;;;6.28;4.50;;;;;;;19.32;60.69;100759.63;5054186;28;20037;-59
2022/07/25 03:31:35;;;;;;;6.75;5.65;;;;;;;19.41;60.54;100752.00;5054101;28;20043;-60
2022/07/25 03:34:01;;;;;;;6.53;4.75;;;;;;;19.48;60.43;100759.69;5053961;28;20408;-60
2022/07/25 03:36:26;;;;;;;7.32;5.95;;;;;;;19.52;60.15;100753.25;5054215;28;20524;-59
2022/07/25 03:38:52;;;;;;;7.70;5.55;;;;;;;19.57;60.23;100753.84;5053808;28;20045;-59
2022/07/25 03:41:17;;;;;;;7.72;5.88;;;;;;;19.64;59.85;100742.81;5054108;28;20033;-59
2022/07/25 03:43:43;;;;;;;5.85;5.05;;;;;;;19.73;59.80;100754.78;5055130;28;20025;-59
2022/07/25 03:46:08;;;;;;;8.98;5.28;;;;;;;19.78;59.69;100755.41;5037418;28;20037;-59
2022/07/25 03:48:34;;;;;;;7.15;5.82;;;;;;;19.77;59.63;100751.00;5054969;28;20094;-59
2022/07/25 03:50:59;;;;;;;6.45;5.30;;;;;;;19.67;59.57;100750.66;5055117;28;20377;-59
2022/07/25 03:53:24;;;;;;;7.38;5.38;;;;;;;19.78;59.57;100750.06;5036878;28;20033;-59
2022/07/25 03:55:50;;;;;;;6.10;5.07;;;;;;;19.88;59.62;100743.28;5054169;28;20059;-59
2022/07/25 03:58:15;;;;;;;6.35;4.80;;;;;;;19.96;59.19;100750.03;5053858;28;20183;-59
2022/07/25 04:00:40;;;;;;;7.68;5.05;;;;;;;19.87;59.15;100744.25;5053590;28;20041;-59
2022/07/25 04:03:06;;;;;;;9.20;7.40;;;;;;;19.86;59.25;100728.31;5054591;28;20072;-59
2022/07/25 04:05:31;;;;;;;7.22;6.22;;;;;;;19.85;59.46;100731.94;5053694;28;20033;-59
2022/07/25 04:07:57;;;;;;;6.97;5.30;;;;;;;19.89;59.35;100736.16;5054385;28;20065;-60
2022/07/25 04:10:23;;;;;;;6.53;5.40;;;;;;;19.87;59.23;100725.59;5053836;28;20036;-59
2022/07/25 04:12:48;;;;;;;6.50;5.43;;;;;;;19.96;59.18;100726.03;5053666;28;20037;-60
2022/07/25 04:15:15;;;;;;;7.45;5.35;;;;;;;20.10;58.67;100720.75;5052537;28;20408;-60
2022/07/25 04:17:40;;;;;;;7.07;5.80;;;;;;;20.26;58.33;100716.28;5037013;28;20365;-59
2022/07/25 04:20:06;;;;;;;7.30;5.40;;;;;;;20.40;58.11;100724.38;5054608;28;20040;-59
2022/07/25 04:22:32;;;;;;;7.00;5.53;;;;;;;20.55;57.73;100721.84;5053122;28;20491;-60
2022/07/25 04:24:58;;;;;;;7.85;4.82;;;;;;;20.72;57.27;100715.50;5054830;28;20033;-59
2022/07/25 04:27:26;;;;;;;5.60;4.80;;;;;;;20.85;56.92;100708.47;5054208;28;20041;-59
2022/07/25 04:29:51;;;;;;;5.30;4.30;;;;;;;21.02;56.82;100716.34;5051233;28;20091;-59
2022/07/25 04:32:18;;;;;;;5.95;4.47;;;;;;;21.13;56.27;100710.34;5042279;28;20041;-60
2022/07/25 04:34:43;;;;;;;5.70;4.05;;;;;;;21.22;56.30;100707.13;5051636;28;20045;-59
2022/07/25 04:37:09;;;;;;;7.00;4.25;;;;;;;21.38;56.00;100718.66;5053568;28;20051;-60
2022/07/25 04:39:34;;;;;;;5.85;4.30;;;;;;;21.51;55.91;100710.72;5051484;28;20033;-60
2022/07/25 04:42:00;;;;;;;4.72;3.75;;;;;;;21.64;55.58;100710.81;5054520;28;20074;-59
2022/07/25 04:44:25;;;;;;;4.82;4.28;;;;;;;21.81;55.00;100709.75;5050079;28;20036;-57
2022/07/25 04:46:51;;;;;;;3.78;3.40;;;;;;;21.89;55.02;100710.97;5045136;28;20047;-60
2022/07/25 04:49:16;;;;;;;5.45;3.75;;;;;;;21.97;54.90;100704.28;5053798;28;20076;-60
2022/07/25 04:51:42;;;;;;;4.72;4.10;;;;;;;22.01;54.89;100704.00;5053861;28;20036;-60
2022/07/25 04:54:08;;;;;;;4.50;3.45;;;;;;;22.02;54.76;100699.50;5060128;28;20068;-60
2022/07/25 04:56:34;;;;;;;5.10;3.47;;;;;;;22.04;54.60;100690.44;5056217;28;20537;-60
2022/07/25 04:58:59;;;;;;;6.40;3.95;;;;;;;22.19;54.48;100693.97;5074005;28;20040;-60
2022/07/25 05:01:25;;;;;;;4.28;3.70;;;;;;;22.23;54.34;100695.47;5065638;28;20033;-60
2022/07/25 05:03:50;;;;;;;3.72;3.33;;;;;;;22.27;54.33;100693.47;5059811;28;20070;-59
2022/07/25 05:06:16;;;;;;;6.93;3.20;;;;;;;22.37;54.25;100687.38;5051907;28;20037;-60
2022/07/25 05:08:41;;;;;;;7.03;3.58;;;;;;;22.47;53.98;100692.16;5052079;28;20487;-60
2022/07/25 05:11:06;;;;;;;3.88;3.55;;;;;;;22.56;53.58;100694.22;5053190;28;20487;-60
2022/07/25 05:13:32;;;;;;;4.63;2.88;;;;;;;22.53;53.57;100689.06;5053560;28;20079;-60
2022/07/25 05:15:57;;;;;;;3.00;2.70;;;;;;;22.69;53.25;100686.22;5053306;28;20037;-60
2022/07/25 05:18:23;;;;;;;3.70;3.22;;;;;;;22.83;53.03;100688.81;5051399;28;20527;-60
2022/07/25 05:20:51;;;;;;;3.70;3.08;;;;;;;22.83;52.73;100697.72;5048102;28;20037;-60
2022/07/25 05:23:17;;;;;;;3.00;2.70;;;;;;;22.98;52.89;100700.31;5053265;28;20033;-60
2022/07/25 05:25:42;;;;;;;6.03;3.50;;;;;;;22.93;52.99;100699.78;5053411;28;20033;-60
2022/07/25 05:28:07;;;;;;;3.70;2.80;;;;;;;23.09;52.56;100687.06;5048394;28;20038;-60
2022/07/25 05:30:33;;;;;;;3.63;3.08;;;;;;;23.05;52.95;100688.22;5049760;28;20346;-60
2022/07/25 05:32:59;;;;;;;3.95;3.05;;;;;;;23.18;52.46;100683.75;5053012;28;20102;-60
2022/07/25 05:35:24;;;;;;;2.92;2.30;;;;;;;23.35;52.27;100690.63;5053166;28;20049;-60
2022/07/25 05:37:50;;;;;;;3.92;2.83;;;;;;;23.43;52.24;100687.41;5053784;28;20498;-60
2022/07/25 05:40:15;;;;;;;5.00;3.10;;;;;;;23.51;51.86;100682.34;5052109;28;20476;-60
2022/07/25 05:42:40;;;;;;;3.75;3.15;;;;;;;23.49;51.94;100687.81;5053420;28;20033;-60
2022/07/25 05:45:06;;;;;;;5.25;3.50;;;;;;;23.68;51.51;100676.66;5052642;28;20064;-60
2022/07/25 05:47:32;;;;;;;3.55;2.80;;;;;;;23.75;51.32;100677.94;5031820;28;20042;-60
2022/07/25 05:50:00;;;;;;;3.42;3.13;;;;;;;23.82;51.01;100668.50;5033140;28;20041;-60
2022/07/25 05:52:25;;;;;;;3.33;2.78;;;;;;;24.01;50.61;100672.50;5034424;28;20033;-60
2022/07/25 05:54:51;;;;;;;3.17;2.88;;;;;;;24.05;50.70;100674.00;5053203;28;20115;-60
2022/07/25 05:57:16;;;;;;;4.60;3.65;;;;;;;24.05;50.73;100676.66;5051840;28;20033;-59
2022/07/25 05:59:42;;;;;;;5.97;3.35;;;;;;;24.00;50.74;100663.59;5051600;28;20079;-59
2022/07/25 06:02:07;;;;;;;6.55;2.95;;;;;;;24.17;50.62;100656.13;5049075;28;20029;-60
2022/07/25 06:04:33;;;;;;;5.03;3.17;;;;;;;24.24;50.46;100665.44;5060341;28;20111;-60
2022/07/25 06:06:58;;;;;;;3.75;2.88;;;;;;;24.38;50.21;100659.94;5063837;28;20112;-60
2022/07/25 06:09:24;;;;;;;3.08;2.75;;;;;;;24.43;49.91;100654.22;5062980;28;20041;-60
2022/07/25 06:11:50;;;;;;;4.13;2.40;;;;;;;24.58;49.99;100655.75;5073032;28;20033;-60
2022/07/25 06:14:16;;;;;;;3.78;2.60;;;;;;;24.72;49.52;100663.59;5062984;28;20094;-60
2022/07/25 06:16:42;;;;;;;2.97;2.65;;;;;;;24.90;49.15;100663.19;5051780;28;20033;-60
2022/07/25 06:19:08;;;;;;;3.35;2.80;;;;;;;24.95;49.05;100650.25;5053781;28;20029;-60
2022/07/25 06:21:33;;;;;;;3.53;2.85;;;;;;;25.00;49.28;100654.28;5052744;28;20106;-60
2022/07/25 06:23:58;;;;;;;3.78;2.42;;;;;;;25.11;49.00;100649.94;5052756;28;20040;-60
2022/07/25 06:26:24;;;;;;;3.20;2.78;;;;;;;25.17;49.00;100654.81;5052256;28;20468;-61
2022/07/25 06:28:50;;;;;;;3.70;2.80;;;;;;;25.25;48.71;100658.59;5033050;28;20431;-61
2022/07/25 06:31:16;;;;;;;4.57;2.83;;;;;;;25.42;48.50;100651.91;5050986;28;20151;-60
2022/07/25 06:33:42;;;;;;;3.47;3.05;;;;;;;25.40;48.34;100642.25;5050529;28;20056;-61
2022/07/25 06:36:07;;;;;;;3.97;2.38;;;;;;;25.58;48.23;100648.84;5053775;28;20452;-61
2022/07/25 06:38:33;;;;;;;6.07;2.67;;;;;;;25.44;48.18;100647.25;5056309;28;20090;-60
2022/07/25 06:40:58;;;;;;;4.85;3.08;;;;;;;25.50;47.86;100637.88;5054909;28;20037;-60
2022/07/25 06:43:24;;;;;;;3.60;2.92;;;;;;;25.51;48.10;100636.88;5055575;28;20047;-60
2022/07/25 06:45:50;;;;;;;3.88;3.00;;;;;;;25.73;47.74;100633.28;5065399;28;20036;-60
2022/07/25 06:48:16;;;;;;;3.28;2.20;;;;;;;25.91;47.35;100630.97;5041886;28;20131;-60
2022/07/25 06:50:42;;;;;;;5.25;2.70;;;;;;;26.12;47.01;100625.66;5055538;28;20021;-60
2022/07/25 06:53:07;;;;;;;3.75;2.47;;;;;;;26.25;46.58;100631.72;5055437;28;20029;-60
2022/07/25 06:55:33;;;;;;;3.45;2.25;;;;;;;26.35;46.44;100629.13;5048779;28;20037;-67
2022/07/25 06:57:58;;;;;;;4.05;2.03;;;;;;;26.33;46.45;100631.09;5028191;28;20041;-61
2022/07/25 07:00:24;;;;;;;3.08;2.00;;;;;;;26.48;45.93;100630.69;5040831;28;20037;-60
2022/07/25 07:02:59;;;;;;;3.55;2.42;;;;;;;26.60;45.64;100631.50;5054385;28;20115;-61
2022/07/25 07:05:28;;;;;;;4.05;2.50;;;;;;;26.65;45.32;100615.81;5056334;28;20032;-60
2022/07/25 07:07:53;;;;;;;3.22;2.30;;;;;;;26.72;45.11;100608.03;5054725;28;20040;-60
2022/07/25 07:10:20;;;;;;;3.97;2.50;;;;;;;26.73;45.12;100613.31;5055836;28;20041;-60
2022/07/25 07:12:46;;;;;;;2.78;2.20;;;;;;;26.89;44.95;100614.66;5048342;28;20037;-60
2022/07/25 07:15:12;;;;;;;2.42;2.13;;;;;;;26.99;44.58;100619.13;5055538;28;20119;-60
2022/07/25 07:17:38;;;;;;;2.70;2.38;;;;;;;27.04;44.56;100621.41;5054478;28;20024;-61
2022/07/25 07:20:04;;;;;;;4.65;2.53;;;;;;;27.23;44.21;100609.91;5054856;28;20025;-60
2022/07/25 07:22:30;;;;;;;5.10;2.70;;;;;;;27.31;44.21;100598.44;5054263;28;20040;-60
2022/07/25 07:24:55;;;;;;;4.03;2.88;;;;;;;27.38;43.82;100602.31;5055672;28;20037;-60
2022/07/25 07:27:23;;;;;;;2.97;2.28;;;;;;;27.33;43.78;100607.25;5053775;28;20052;-60
2022/07/25 07:29:49;;;;;;;3.95;2.63;;;;;;;27.21;43.33;100601.09;5053905;28;20036;-60
2022/07/25 07:32:14;;;;;;;2.50;2.30;;;;;;;27.22;43.42;100606.38;5054945;28;20045;-60
2022/07/25 07:34:40;;;;;;;3.42;2.50;;;;;;;27.23;43.37;100586.50;5053893;28;20110;-60
2022/07/25 07:37:05;;;;;;;3.33;2.58;;;;;;;27.16;43.52;100595.25;5055630;28;20037;-60
2022/07/25 07:39:31;;;;;;;5.28;2.50;;;;;;;27.21;43.55;100591.19;5053332;28;20041;-60
2022/07/25 07:41:56;;;;;;;5.55;2.33;;;;;;;27.38;42.94;100592.38;5055267;28;20388;-60
2022/07/25 07:44:22;;;;;;;5.68;2.28;;;;;;;27.43;42.65;100589.28;5055134;28;20484;-60
2022/07/25 07:46:47;;;;;;;4.43;2.30;;;;;;;27.54;42.35;100591.88;5051933;28;20373;-60
2022/07/25 07:49:13;;;;;;;3.60;2.40;;;;;;;27.70;41.85;100583.25;5060283;28;20028;-60
2022/07/25 07:51:38;;;;;;;5.53;2.50;;;;;;;27.77;41.74;100578.16;5055670;28;20492;-59
2022/07/25 07:56:48;;;;;;;5.53;2.00;;;;;;;28.03;41.13;100567.69;5055316;28;20583;-60
2022/07/25 07:59:14;;;;;;;8.63;2.83;;;;;;;28.13;40.91;100565.84;5054537;28;20124;-60
2022/07/25 08:01:39;;;;;;;8.27;2.70;;;;;;;28.22;40.64;100565.00;5054426;28;20388;-60
2022/07/25 08:04:05;;;;;;;2.67;2.00;;;;;;;28.23;40.49;100559.44;5051368;28;20044;-60
2022/07/25 08:06:30;;;;;;;4.93;2.40;;;;;;;28.20;40.60;100561.56;5060191;28;20396;-60
2022/07/25 08:08:55;;;;;;;7.03;2.60;;;;;;;28.31;40.16;100557.88;5054013;28;20049;-60
2022/07/25 08:11:21;;;;;;;6.88;2.20;;;;;;;28.37;39.85;100550.09;5053033;28;20037;-60
2022/07/25 08:13:46;;;;;;;6.30;2.40;;;;;;;28.47;39.77;100558.19;5053533;28;20032;-60
2022/07/25 08:16:12;;;;;;;5.80;2.30;;;;;;;28.48;39.28;100554.47;5046405;28;20128;-62
2022/07/25 08:18:38;;;;;;;4.88;1.85;;;;;;;28.54;39.40;100551.19;5032454;28;20088;-60
2022/07/25 08:21:05;;;;;;;4.43;1.90;;;;;;;28.61;38.44;100549.63;5047205;28;20036;-60
2022/07/25 08:23:37;;;;;;;8.00;2.28;;;;;;;28.69;38.43;100557.84;5031377;28;20519;-60
2022/07/25 08:26:03;;;;;;;2.70;1.90;;;;;;;28.70;38.23;100546.03;5043516;28;20032;-61
2022/07/25 08:28:28;;;;;;;5.60;2.08;;;;;;;28.84;38.56;100555.53;5070332;28;20032;-62
2022/07/25 08:30:54;;;;;;;7.90;2.60;;;;;;;28.87;37.81;100548.97;5056663;28;20550;-60
2022/07/25 08:33:19;;;;;;;12.88;3.47;;;;;;;28.88;38.54;100558.78;5051688;28;20029;-60
2022/07/25 08:35:47;;;;;;;7.72;2.20;;;;;;;28.92;37.95;100552.94;5051619;28;20071;-60
2022/07/25 08:38:12;;;;;;;4.70;2.40;;;;;;;29.06;37.73;100559.75;5052184;28;20086;-59
2022/07/25 08:40:39;;;;;;;4.43;2.20;;;;;;;29.04;37.19;100559.03;5051638;28;20115;-60
2022/07/25 08:43:05;;;;;;;3.47;2.25;;;;;;;29.08;37.32;100557.75;5050092;28;20480;-60
2022/07/25 08:45:32;;;;;;;3.22;2.63;;;;;;;28.91;36.56;100550.38;5053996;28;20036;-60
2022/07/25 08:47:57;;;;;;;4.60;2.20;;;;;;;28.98;37.12;100546.13;5054109;28;20043;-60
2022/07/25 08:50:26;;;;;;;7.38;2.40;;;;;;;28.97;37.04;100555.25;5053981;28;20038;-60
2022/07/25 08:52:52;;;;;;;2.83;1.98;;;;;;;29.20;37.11;100547.59;5052504;28;20040;-60
2022/07/25 08:55:20;;;;;;;5.18;2.33;;;;;;;29.30;37.09;100555.69;5056675;28;20456;-60
2022/07/25 08:57:47;;;;;;;6.53;2.78;;;;;;;29.40;37.28;100548.34;5046879;28;20529;-60
2022/07/25 09:00:25;;;;;;;2.30;2.05;;;;;;;29.48;36.68;100545.72;5050904;28;20036;-60
2022/07/25 09:02:59;;;;;;;3.85;2.40;;;;;;;29.49;36.95;100541.19;5053149;28;20051;-61
2022/07/25 09:05:26;;;;;;;6.07;2.20;;;;;;;29.59;37.13;100540.16;5050684;28;20104;-61
2022/07/25 09:07:53;;;;;;;4.32;1.95;;;;;;;29.72;36.99;100538.91;5053053;28;20025;-61
2022/07/25 09:10:21;;;;;;;8.70;2.40;;;;;;;29.82;36.95;100534.31;5052550;28;20060;-61
2022/07/25 09:13:06;;;;;;;5.70;2.47;;;;;;;29.92;37.45;100543.19;5053878;28;20067;-61
2022/07/25 09:15:41;;;;;;;17.25;4.00;;;;;;;29.87;36.62;100535.53;5052396;28;20516;-61
2022/07/25 09:18:11;;;;;;;2.75;2.20;;;;;;;29.82;35.87;100529.72;5052567;28;20029;-60
2022/07/25 09:20:40;;;;;;;40.08;6.13;;;;;;;29.80;36.46;100528.16;5052206;28;20428;-60
2022/07/25 09:23:06;;;;;;;72.38;12.77;;;;;;;29.71;36.41;100527.25;5053707;28;20532;-60
2022/07/25 09:25:31;;;;;;;100.68;17.83;;;;;;;29.78;36.75;100531.03;5052648;28;20029;-60
2022/07/25 09:28:13;;;;;;;90.72;15.25;;;;;;;29.77;35.36;100525.78;5052326;28;20473;-61
2022/07/25 09:30:51;;;;;;;57.23;10.87;;;;;;;29.80;36.73;100525.47;5052230;28;20041;-60
2022/07/25 09:33:16;;;;;;;21.60;5.55;;;;;;;29.92;36.39;100529.66;5052798;28;20033;-60
2022/07/25 09:35:42;;;;;;;40.25;8.60;;;;;;;29.99;36.17;100525.31;5053327;28;20505;-61
2022/07/25 09:38:15;;;;;;;45.08;9.48;;;;;;;30.01;36.79;100523.31;5053703;28;20052;-60
2022/07/25 09:40:41;;;;;;;27.27;6.10;;;;;;;29.95;36.71;100522.06;5053220;28;20115;-61
2022/07/25 09:43:06;;;;;;;29.23;6.10;;;;;;;30.07;36.49;100525.38;5052107;28;20040;-61
2022/07/25 09:45:32;;;;;;;10.23;3.55;;;;;;;30.07;36.21;100519.97;5053057;28;20033;-61
2022/07/25 09:48:01;;;;;;;11.98;3.72;;;;;;;30.11;35.89;100518.66;5052075;28;20460;-60
2022/07/25 09:50:29;;;;;;;35.08;6.82;;;;;;;30.14;36.43;100512.94;5051935;28;20094;-61
2022/07/25 09:52:57;;;;;;;35.13;6.30;;;;;;;30.21;36.50;100504.22;5052277;28;20025;-61
2022/07/25 09:55:23;;;;;;;11.95;3.47;;;;;;;30.28;36.31;100505.25;5053303;28;20047;-60
2022/07/25 09:57:51;;;;;;;35.63;5.03;;;;;;;30.26;36.15;100510.84;5053620;28;20378;-61
2022/07/25 10:00:23;;;;;;;5.82;2.88;;;;;;;30.28;35.36;100508.84;5051990;28;20044;-61
2022/07/25 10:02:50;;;;;;;8.00;2.53;;;;;;;30.36;35.58;100505.31;5051844;28;20120;-60
2022/07/25 10:05:41;;;;;;;7.80;2.67;;;;;;;30.42;35.20;100504.72;5051874;28;20286;-60
2022/07/25 10:08:07;;;;;;;15.82;3.75;;;;;;;30.43;35.47;100501.81;5054419;28;20036;-60
2022/07/25 10:10:38;;;;;;;4.95;2.85;;;;;;;30.41;34.73;100492.16;5055798;28;20373;-61
2022/07/25 10:13:09;;;;;;;3.58;2.33;;;;;;;30.53;35.17;100487.34;5055918;28;20025;-61
2022/07/25 10:15:52;;;;;;;7.65;2.30;;;;;;;30.52;34.33;100481.06;5057345;28;20095;-61
2022/07/25 10:18:29;;;;;;;6.47;2.40;;;;;;;30.61;34.86;100480.09;5055573;28;20031;-61
2022/07/25 10:21:11;;;;;;;3.90;2.42;;;;;;;30.56;34.15;100487.88;5055534;28;20021;-61
2022/07/25 10:23:40;;;;;;;5.82;2.63;;;;;;;30.68;35.00;100477.56;5055648;28;20114;-61
2022/07/25 10:26:14;;;;;;;3.78;2.47;;;;;;;30.73;34.87;100474.41;5039558;28;20064;-61
2022/07/25 10:28:51;;;;;;;3.95;2.65;;;;;;;30.82;34.50;100473.47;5055503;28;20036;-60
2022/07/25 10:31:26;;;;;;;6.55;2.55;;;;;;;30.84;34.11;100466.00;5055167;28;20033;-61
2022/07/25 10:33:57;;;;;;;5.40;2.40;;;;;;;30.88;34.62;100470.97;5055560;28;20040;-60
2022/07/25 10:36:28;;;;;;;2.67;2.30;;;;;;;30.97;35.06;100460.13;5055402;28;20037;-61
2022/07/25 10:38:59;;;;;;;5.50;3.03;;;;;;;30.79;34.49;100471.06;5056654;28;20036;-60
2022/07/25 10:41:27;;;;;;;12.60;3.55;;;;;;;30.86;35.33;100464.81;5055441;28;20469;-61
2022/07/25 10:43:56;;;;;;;8.63;3.05;;;;;;;30.87;34.57;100463.81;5056455;28;20033;-61
2022/07/25 10:46:26;;;;;;;13.63;3.08;;;;;;;30.88;34.57;100456.50;5055205;28;20025;-60
2022/07/25 10:49:00;;;;;;;8.63;4.00;;;;;;;30.88;34.22;100445.66;5056340;28;20044;-60
2022/07/25 10:51:28;;;;;;;10.30;5.90;;;;;;;30.99;34.68;100453.50;5055115;28;20029;-60
2022/07/25 10:53:53;;;;;;;23.85;11.18;;;;;;;30.98;34.31;100450.97;5054789;28;20033;-61
2022/07/25 10:56:21;;;;;;;18.83;9.55;;;;;;;30.87;34.43;100450.25;5056125;28;20376;-61
2022/07/25 10:58:57;;;;;;;26.75;10.98;;;;;;;30.99;34.35;100448.09;5054763;28;20033;-61
2022/07/25 11:01:32;;;;;;;18.80;8.40;;;;;;;31.08;34.37;100439.00;5042505;28;20025;-61
2022/07/25 11:04:13;;;;;;;30.75;11.05;;;;;;;31.06;34.00;100432.88;5034051;28;20029;-60
2022/07/25 11:06:41;;;;;;;59.80;11.18;;;;;;;31.08;34.38;100433.56;5036100;28;20032;-61
2022/07/25 11:09:23;;;;;;;55.90;9.63;;;;;;;31.09;33.84;100431.69;5052876;28;20040;-61
2022/07/25 11:11:50;;;;;;;13.27;4.15;;;;;;;31.23;34.23;100422.91;5076425;28;20039;-60
2022/07/25 11:14:22;;;;;;;21.77;4.90;;;;;;;31.33;33.41;100417.38;5066482;28;20041;-61
2022/07/25 11:16:51;;;;;;;11.52;4.65;;;;;;;31.39;33.66;100424.84;5055868;28;20025;-60
2022/07/25 11:19:22;;;;;;;27.08;5.10;;;;;;;31.45;33.23;100415.19;5055481;28;20522;-61
2022/07/25 11:21:59;;;;;;;14.60;5.05;;;;;;;31.46;33.81;100415.00;5054978;28;20024;-61
2022/07/25 11:24:43;;;;;;;16.48;4.82;;;;;;;31.48;34.07;100415.69;5055698;28;20079;-60
2022/07/25 11:27:11;;;;;;;10.38;3.42;;;;;;;31.54;33.85;100406.88;5049146;28;20033;-62